createdAt,value
2022-11-24T00:04:31.276Z,7
2022-11-24T00:33:31.033Z,7
2022-11-24T01:02:53.714Z,5
2022-11-24T01:32:11.499Z,7
2022-11-24T02:01:29.985Z,8
2022-11-24T02:30:43.404Z,7
2022-11-24T02:59:49.685Z,7
2022-11-24T03:28:51.271Z,7
2022-11-24T03:58:05.794Z,9
2022-11-24T04:27:10.935Z,9
2022-11-24T04:56:26.420Z,9
2022-11-24T05:25:26.468Z,9
2022-11-24T05:54:40.524Z,9
2022-11-24T06:23:55.788Z,10
2022-11-24T06:52:48.032Z,15
2022-11-24T07:21:56.468Z,13
2022-11-24T07:50:56.720Z,12
2022-11-24T08:19:54.313Z,9
2022-11-24T08:48:53.650Z,9
2022-11-24T09:18:02.656Z,10
2022-11-24T09:46:59.019Z,12
2022-11-24T10:16:06.538Z,10
2022-11-24T10:45:09.192Z,9
2022-11-24T11:14:09.352Z,11
2022-11-24T11:43:22.138Z,6
2022-11-24T12:12:28.138Z,6
2022-11-24T12:41:52.978Z,6
2022-11-24T13:10:58.386Z,6
2022-11-24T13:39:58.525Z,7
2022-11-24T14:08:57.850Z,7
2022-11-24T14:38:12.483Z,6
2022-11-24T15:07:29.986Z,11
2022-11-24T15:36:30.533Z,16
2022-11-24T16:05:41.733Z,16
2022-11-24T16:35:01.054Z,16
2022-11-24T17:04:16.972Z,15
2022-11-24T17:33:31.908Z,15
2022-11-24T18:02:49.011Z,19
2022-11-24T18:32:00.036Z,16
2022-11-24T19:01:09.690Z,14
2022-11-24T19:30:23.328Z,12
2022-11-24T19:59:31.017Z,12
2022-11-24T20:28:48.896Z,10
2022-11-24T20:58:08.976Z,12
2022-11-24T21:27:24.021Z,11
2022-11-24T21:56:44.216Z,10
2022-11-24T22:25:59.013Z,11
2022-11-24T22:55:11.177Z,11
2022-11-24T23:24:18.728Z,11
2022-11-24T23:53:10.465Z,10
